Flag for USA

Past Weather in 35°41'29"N, 105°56'14"W, USA — Yesterday and Last 2 Weeks

Currently: 62 °F. Clear. (Weather station: Santa Fe County Municipal Airport, USA). See more current weather

Past Weather in 35°41'29"N, 105°56'14"W — Graph

°F

35°41'29"N, 105°56'14"W Temperature Yesterday

Maximum temperature yesterday: 82 °F (at 3:53 pm)
Minimum temperature yesterday: 61 °F (at 4:53 am)
Average temperature yesterday: 68 °F

High & Low Weather Summary for the Past Weeks

 TemperatureHumidityPressure
High96 °F (Jul 15, 3:53 pm)87% (Jul 11, 2:53 am)30.43 "Hg (Jul 11, 2:53 am)
Low51 °F (Jul 7, 4:53 am)8% (Jul 7, 6:53 pm)29.71 "Hg (Jul 7, 7:53 pm)
Average75 °F42%29.98 "Hg
* Reported Jul 6 10:53 pm — Jul 21 10:53 pm, 35°41'29"N, 105°56'14"W. Weather by CustomWeather, © 2024

Note: Actual official high and low records may vary slightly from our data, if they occured in-between our weather recording intervals... More about our weather records

35°41'29"N, 105°56'14"W Weather History for the Previous 24 Hours

Scroll right to see more
 ConditionsComfort  
Time TempWeatherWind HumidityBarometerVisibility
10:53 pm
Sun, Jul 21
62 °FClear.7 mph75%30.09 "Hg10 mi
9:53 pm63 °FPassing clouds.10 mph75%30.08 "Hg10 mi
8:53 pm67 °FPassing clouds.15 mph61%30.02 "Hg10 mi
7:53 pm67 °FMore clouds than sun.10 mph55%30.04 "Hg10 mi
6:53 pm66 °FScattered clouds.18 mph61%30.04 "Hg10 mi
5:53 pm70 °FBroken clouds.23 mph51%30.00 "Hg10 mi
4:53 pm81 °FSunny.5 mph32%29.94 "Hg10 mi
3:53 pm82 °FSunny.7 mph31%29.93 "Hg10 mi
2:53 pm81 °FSunny.7 mph32%29.96 "Hg10 mi
1:53 pm78 °FSunny.N/A33%30.00 "Hg10 mi
12:53 pm73 °FPassing clouds.No wind41%30.05 "Hg10 mi
11:53 am68 °FOvercast.5 mph59%30.11 "Hg10 mi
10:53 am68 °FSunny.18 mph59%30.12 "Hg10 mi
9:53 am67 °FSunny.18 mph63%30.12 "Hg10 mi
8:53 am69 °FSunny.12 mph63%30.10 "Hg10 mi
7:53 am68 °FSunny.9 mph65%30.09 "Hg10 mi
6:53 am61 °FSunny.6 mph83%30.10 "Hg10 mi
5:53 am61 °FOvercast.7 mph83%30.10 "Hg10 mi
4:53 am61 °FOvercast.3 mph87%30.09 "Hg10 mi
3:53 am64 °FOvercast.No wind75%30.08 "Hg10 mi
2:53 am64 °FPassing clouds.No wind75%30.04 "Hg10 mi
1:53 am65 °FOvercast.3 mph70%30.04 "Hg10 mi
12:53 am66 °FPassing clouds.10 mph68%30.04 "Hg10 mi
Weather by CustomWeather, © 2024

See weather overview